sensor_id;sensor_type;location;lat;lon;timestamp;pressure;altitude;pressure_sealevel;temperature;humidity
4398;BME280;2213;49.720;7.296;2023-08-17T00:02:14;98297.88;;;19.21;100.00
4398;BME280;2213;49.720;7.296;2023-08-17T00:04:43;98304.19;;;19.20;100.00
4398;BME280;2213;49.720;7.296;2023-08-17T00:07:14;98303.41;;;19.19;100.00
4398;BME280;2213;49.720;7.296;2023-08-17T00:09:45;98304.13;;;19.15;100.00
4398;BME280;2213;49.720;7.296;2023-08-17T00:12:16;98309.75;;;19.18;100.00
4398;BME280;2213;49.720;7.296;2023-08-17T00:14:47;98303.78;;;19.11;100.00
4398;BME280;2213;49.720;7.296;2023-08-17T00:17:16;98295.16;;;19.04;100.00
4398;BME280;2213;49.720;7.296;2023-08-17T00:19:47;98301.97;;;19.00;100.00
4398;BME280;2213;49.720;7.296;2023-08-17T00:22:17;98308.28;;;18.99;100.00
4398;BME280;2213;49.720;7.296;2023-08-17T00:24:48;98307.72;;;18.97;100.00
4398;BME280;2213;49.720;7.296;2023-08-17T00:27:17;98311.66;;;18.94;100.00
4398;BME280;2213;49.720;7.296;2023-08-17T00:29:46;98308.09;;;18.89;100.00
4398;BME280;2213;49.720;7.296;2023-08-17T00:32:17;98301.63;;;18.85;100.00
4398;BME280;2213;49.720;7.296;2023-08-17T00:34:48;98312.03;;;18.86;100.00
4398;BME280;2213;49.720;7.296;2023-08-17T00:37:18;98308.47;;;18.81;100.00
4398;BME280;2213;49.720;7.296;2023-08-17T00:39:51;98307.88;;;18.79;100.00
4398;BME280;2213;49.720;7.296;2023-08-17T00:42:21;98303.94;;;18.81;100.00
4398;BME280;2213;49.720;7.296;2023-08-17T00:44:52;98305.69;;;18.76;100.00
4398;BME280;2213;49.720;7.296;2023-08-17T00:47:22;98308.00;;;18.72;100.00
4398;BME280;2213;49.720;7.296;2023-08-17T00:49:52;98303.50;;;18.73;100.00
4398;BME280;2213;49.720;7.296;2023-08-17T00:52:24;98309.50;;;18.68;100.00
4398;BME280;2213;49.720;7.296;2023-08-17T00:54:57;98311.81;;;18.65;100.00
4398;BME280;2213;49.720;7.296;2023-08-17T00:57:30;98311.25;;;18.51;100.00
4398;BME280;2213;49.720;7.296;2023-08-17T01:00:00;98307.19;;;18.37;100.00
4398;BME280;2213;49.720;7.296;2023-08-17T01:02:34;98310.63;;;18.37;100.00
4398;BME280;2213;49.720;7.296;2023-08-17T01:05:06;98304.41;;;18.43;100.00
4398;BME280;2213;49.720;7.296;2023-08-17T01:07:35;98303.16;;;18.46;100.00
4398;BME280;2213;49.720;7.296;2023-08-17T01:10:09;98304.41;;;18.43;100.00
4398;BME280;2213;49.720;7.296;2023-08-17T01:12:48;98304.19;;;18.45;100.00
4398;BME280;2213;49.720;7.296;2023-08-17T01:15:27;98298.09;;;18.44;100.00
4398;BME280;2213;49.720;7.296;2023-08-17T01:18:11;98296.38;;;18.38;100.00
4398;BME280;2213;49.720;7.296;2023-08-17T01:20:46;98297.19;;;18.39;100.00
4398;BME280;2213;49.720;7.296;2023-08-17T01:23:18;98291.63;;;18.40;100.00
4398;BME280;2213;49.720;7.296;2023-08-17T01:25:50;98294.28;;;18.40;100.00
4398;BME280;2213;49.720;7.296;2023-08-17T01:28:21;98293.47;;;18.40;100.00
4398;BME280;2213;49.720;7.296;2023-08-17T01:30:59;98291.19;;;18.32;100.00
4398;BME280;2213;49.720;7.296;2023-08-17T01:33:38;98284.50;;;18.29;100.00
4398;BME280;2213;49.720;7.296;2023-08-17T01:36:18;98291.88;;;18.27;100.00
4398;BME280;2213;49.720;7.296;2023-08-17T01:38:53;98287.13;;;18.29;100.00
4398;BME280;2213;49.720;7.296;2023-08-17T01:41:26;98293.25;;;18.30;100.00
4398;BME280;2213;49.720;7.296;2023-08-17T01:43:58;98290.50;;;18.25;100.00
4398;BME280;2213;49.720;7.296;2023-08-17T01:46:32;98281.41;;;18.21;100.00
4398;BME280;2213;49.720;7.296;2023-08-17T01:49:03;98284.84;;;18.21;100.00
4398;BME280;2213;49.720;7.296;2023-08-17T01:51:34;98281.38;;;18.09;100.00
4398;BME280;2213;49.720;7.296;2023-08-17T01:54:07;98279.09;;;18.13;100.00
4398;BME280;2213;49.720;7.296;2023-08-17T01:56:37;98278.97;;;18.07;100.00
4398;BME280;2213;49.720;7.296;2023-08-17T01:59:08;98273.09;;;18.05;100.00
4398;BME280;2213;49.720;7.296;2023-08-17T02:01:37;98284.84;;;18.09;100.00
4398;BME280;2213;49.720;7.296;2023-08-17T02:04:07;98281.50;;;18.02;100.00
4398;BME280;2213;49.720;7.296;2023-08-17T02:06:37;98277.59;;;17.93;100.00
4398;BME280;2213;49.720;7.296;2023-08-17T02:09:10;98280.56;;;17.97;100.00
4398;BME280;2213;49.720;7.296;2023-08-17T02:11:41;98278.75;;;17.97;100.00
4398;BME280;2213;49.720;7.296;2023-08-17T02:14:11;98277.59;;;17.93;100.00
4398;BME280;2213;49.720;7.296;2023-08-17T02:16:41;98287.34;;;17.93;100.00
4398;BME280;2213;49.720;7.296;2023-08-17T02:19:11;98285.72;;;17.92;100.00
4398;BME280;2213;49.720;7.296;2023-08-17T02:21:41;98282.97;;;17.87;100.00
4398;BME280;2213;49.720;7.296;2023-08-17T02:24:13;98274.22;;;17.86;100.00
4398;BME280;2213;49.720;7.296;2023-08-17T02:26:44;98278.25;;;17.89;100.00
4398;BME280;2213;49.720;7.296;2023-08-17T02:29:15;98277.22;;;17.90;100.00
4398;BME280;2213;49.720;7.296;2023-08-17T02:31:46;98277.69;;;17.87;100.00
4398;BME280;2213;49.720;7.296;2023-08-17T02:34:16;98266.66;;;17.90;100.00
4398;BME280;2213;49.720;7.296;2023-08-17T02:36:44;98271.94;;;17.90;100.00
4398;BME280;2213;49.720;7.296;2023-08-17T02:39:16;98273.56;;;17.91;100.00
4398;BME280;2213;49.720;7.296;2023-08-17T02:41:47;98275.16;;;17.92;100.00
4398;BME280;2213;49.720;7.296;2023-08-17T02:44:17;98279.88;;;17.90;100.00
4398;BME280;2213;49.720;7.296;2023-08-17T02:46:47;98269.16;;;17.85;100.00
4398;BME280;2213;49.720;7.296;2023-08-17T02:49:16;98271.34;;;17.88;100.00
4398;BME280;2213;49.720;7.296;2023-08-17T02:51:48;98281.34;;;17.86;100.00
4398;BME280;2213;49.720;7.296;2023-08-17T02:54:19;98278.16;;;17.84;100.00
4398;BME280;2213;49.720;7.296;2023-08-17T02:56:49;98275.00;;;17.75;100.00
4398;BME280;2213;49.720;7.296;2023-08-17T02:59:18;98274.53;;;17.67;100.00
4398;BME280;2213;49.720;7.296;2023-08-17T03:01:47;98272.13;;;17.65;100.00
4398;BME280;2213;49.720;7.296;2023-08-17T03:04:16;98264.63;;;17.62;100.00
4398;BME280;2213;49.720;7.296;2023-08-17T03:06:45;98274.09;;;17.70;100.00
4398;BME280;2213;49.720;7.296;2023-08-17T03:09:15;98275.81;;;17.76;100.00
4398;BME280;2213;49.720;7.296;2023-08-17T03:11:46;98268.00;;;17.81;100.00
4398;BME280;2213;49.720;7.296;2023-08-17T03:14:15;98270.63;;;17.81;100.00
4398;BME280;2213;49.720;7.296;2023-08-17T03:16:44;98265.94;;;17.83;100.00
4398;BME280;2213;49.720;7.296;2023-08-17T03:19:15;98263.31;;;17.83;100.00
4398;BME280;2213;49.720;7.296;2023-08-17T03:21:46;98268.00;;;17.81;100.00
4398;BME280;2213;49.720;7.296;2023-08-17T03:24:15;98264.78;;;17.79;100.00
4398;BME280;2213;49.720;7.296;2023-08-17T03:26:46;98263.16;;;17.78;100.00
4398;BME280;2213;49.720;7.296;2023-08-17T03:29:16;98257.53;;;17.74;100.00
4398;BME280;2213;49.720;7.296;2023-08-17T03:31:46;98257.16;;;17.71;100.00
4398;BME280;2213;49.720;7.296;2023-08-17T03:34:18;98259.34;;;17.74;100.00
4398;BME280;2213;49.720;7.296;2023-08-17T03:36:47;98261.78;;;17.75;100.00
4398;BME280;2213;49.720;7.296;2023-08-17T03:39:16;98259.50;;;17.79;100.00
4398;BME280;2213;49.720;7.296;2023-08-17T03:41:47;98262.69;;;17.81;100.00
4398;BME280;2213;49.720;7.296;2023-08-17T03:44:16;98258.00;;;17.83;100.00
4398;BME280;2213;49.720;7.296;2023-08-17T03:46:46;98259.50;;;17.79;100.00
4398;BME280;2213;49.720;7.296;2023-08-17T03:49:15;98258.13;;;17.76;100.00
4398;BME280;2213;49.720;7.296;2023-08-17T03:51:45;98257.88;;;17.78;100.00
4398;BME280;2213;49.720;7.296;2023-08-17T03:54:16;98264.44;;;17.75;100.00
4398;BME280;2213;49.720;7.296;2023-08-17T03:56:49;98261.44;;;17.72;100.00
4398;BME280;2213;49.720;7.296;2023-08-17T03:59:19;98260.50;;;17.66;100.00
4398;BME280;2213;49.720;7.296;2023-08-17T04:01:51;98267.03;;;17.64;100.00
4398;BME280;2213;49.720;7.296;2023-08-17T04:04:20;98273.59;;;17.61;100.00
4398;BME280;2213;49.720;7.296;2023-08-17T04:06:51;98272.56;;;17.62;100.00
4398;BME280;2213;49.720;7.296;2023-08-17T04:09:21;98266.25;;;17.63;100.00
4398;BME280;2213;49.720;7.296;2023-08-17T04:11:53;98272.94;;;17.66;100.00
4398;BME280;2213;49.720;7.296;2023-08-17T04:14:26;98276.84;;;17.75;100.00
4398;BME280;2213;49.720;7.296;2023-08-17T04:16:56;98278.00;;;17.79;100.00
4398;BME280;2213;49.720;7.296;2023-08-17T04:19:26;98275.94;;;17.81;100.00
4398;BME280;2213;49.720;7.296;2023-08-17T04:21:56;98279.03;;;17.78;100.00
4398;BME280;2213;49.720;7.296;2023-08-17T04:24:27;98281.13;;;17.76;100.00
4398;BME280;2213;49.720;7.296;2023-08-17T04:26:58;98284.66;;;17.70;100.00
4398;BME280;2213;49.720;7.296;2023-08-17T04:29:28;98283.25;;;17.67;100.00
4398;BME280;2213;49.720;7.296;2023-08-17T04:31:59;98292.59;;;17.70;100.00
4398;BME280;2213;49.720;7.296;2023-08-17T04:34:30;98287.78;;;17.67;100.00
4398;BME280;2213;49.720;7.296;2023-08-17T04:36:59;98286.16;;;17.66;100.00
4398;BME280;2213;49.720;7.296;2023-08-17T04:39:29;98277.19;;;17.67;100.00
4398;BME280;2213;49.720;7.296;2023-08-17T04:42:00;98284.66;;;17.70;100.00
4398;BME280;2213;49.720;7.296;2023-08-17T04:44:31;98289.97;;;17.70;100.00
4398;BME280;2213;49.720;7.296;2023-08-17T04:47:01;98288.91;;;17.71;100.00
4398;BME280;2213;49.720;7.296;2023-08-17T04:49:30;98289.25;;;17.74;100.00
4398;BME280;2213;49.720;7.296;2023-08-17T04:52:00;98283.50;;;17.77;100.00
4398;BME280;2213;49.720;7.296;2023-08-17T04:54:31;98288.38;;;17.80;100.00
4398;BME280;2213;49.720;7.296;2023-08-17T04:57:04;98297.09;;;17.81;100.00
4398;BME280;2213;49.720;7.296;2023-08-17T04:59:34;98296.06;;;17.82;100.00
4398;BME280;2213;49.720;7.296;2023-08-17T05:02:04;98301.72;;;17.85;100.00
4398;BME280;2213;49.720;7.296;2023-08-17T05:04:35;98297.25;;;17.86;100.00
4398;BME280;2213;49.720;7.296;2023-08-17T05:07:06;98291.94;;;17.86;100.00
4398;BME280;2213;49.720;7.296;2023-08-17T05:09:36;98290.56;;;17.83;100.00
4398;BME280;2213;49.720;7.296;2023-08-17T05:12:09;98298.03;;;17.86;100.00
4398;BME280;2213;49.720;7.296;2023-08-17T05:14:38;98300.03;;;17.91;100.00
4398;BME280;2213;49.720;7.296;2023-08-17T05:17:09;98291.84;;;17.92;100.00
4398;BME280;2213;49.720;7.296;2023-08-17T05:19:39;98296.66;;;17.95;100.00
4398;BME280;2213;49.720;7.296;2023-08-17T05:22:12;98291.84;;;17.92;100.00
4398;BME280;2213;49.720;7.296;2023-08-17T05:24:43;98299.66;;;17.87;100.00
4398;BME280;2213;49.720;7.296;2023-08-17T05:27:16;98292.50;;;17.88;100.00
4398;BME280;2213;49.720;7.296;2023-08-17T05:29:46;98294.47;;;17.92;100.00
4398;BME280;2213;49.720;7.296;2023-08-17T05:32:16;98293.81;;;17.97;100.00
4398;BME280;2213;49.720;7.296;2023-08-17T05:34:47;98303.94;;;18.00;100.00
4398;BME280;2213;49.720;7.296;2023-08-17T05:37:16;98310.03;;;18.00;100.00
4398;BME280;2213;49.720;7.296;2023-08-17T05:39:45;98313.59;;;18.06;100.00
4398;BME280;2213;49.720;7.296;2023-08-17T05:42:17;98318.44;;;18.09;100.00
4398;BME280;2213;49.720;7.296;2023-08-17T05:44:47;98312.59;;;18.07;100.00
4398;BME280;2213;49.720;7.296;2023-08-17T05:47:17;98311.41;;;18.03;100.00
4398;BME280;2213;49.720;7.296;2023-08-17T05:49:48;98313.25;;;18.02;100.00
4398;BME280;2213;49.720;7.296;2023-08-17T05:52:18;98313.03;;;18.04;100.00
4398;BME280;2213;49.720;7.296;2023-08-17T05:54:48;98315.56;;;18.10;100.00
4398;BME280;2213;49.720;7.296;2023-08-17T05:57:20;98317.53;;;18.15;100.00
4398;BME280;2213;49.720;7.296;2023-08-17T05:59:51;98320.31;;;18.20;100.00
4398;BME280;2213;49.720;7.296;2023-08-17T06:02:21;98331.25;;;18.24;100.00
4398;BME280;2213;49.720;7.296;2023-08-17T06:04:51;98319.72;;;18.30;100.00
4398;BME280;2213;49.720;7.296;2023-08-17T06:07:20;98325.97;;;18.35;100.00
4398;BME280;2213;49.720;7.296;2023-08-17T06:09:51;98324.69;;;18.38;100.00
4398;BME280;2213;49.720;7.296;2023-08-17T06:12:23;98322.38;;;18.41;100.00
4398;BME280;2213;49.720;7.296;2023-08-17T06:14:54;98321.38;;;18.42;100.00
4398;BME280;2213;49.720;7.296;2023-08-17T06:17:23;98319.28;;;18.44;100.00
4398;BME280;2213;49.720;7.296;2023-08-17T06:19:54;98316.63;;;18.44;100.00
4398;BME280;2213;49.720;7.296;2023-08-17T06:22:24;98326.53;;;18.49;100.00
4398;BME280;2213;49.720;7.296;2023-08-17T06:24:53;98318.97;;;18.52;100.00
4398;BME280;2213;49.720;7.296;2023-08-17T06:27:26;98317.91;;;18.53;100.00
4398;BME280;2213;49.720;7.296;2023-08-17T06:29:57;98318.72;;;18.54;100.00
4398;BME280;2213;49.720;7.296;2023-08-17T06:32:27;98318.72;;;18.54;100.00
4398;BME280;2213;49.720;7.296;2023-08-17T06:34:58;98326.13;;;18.64;100.00
4398;BME280;2213;49.720;7.296;2023-08-17T06:37:27;98320.69;;;18.70;100.00
4398;BME280;2213;49.720;7.296;2023-08-17T06:39:58;98320.56;;;18.77;100.00
4398;BME280;2213;49.720;7.296;2023-08-17T06:42:29;98328.84;;;18.80;100.00
4398;BME280;2213;49.720;7.296;2023-08-17T06:44:59;98333.91;;;18.82;100.00
4398;BME280;2213;49.720;7.296;2023-08-17T06:47:28;98330.56;;;18.86;100.00
4398;BME280;2213;49.720;7.296;2023-08-17T06:49:58;98330.91;;;18.90;100.00
4398;BME280;2213;49.720;7.296;2023-08-17T06:52:27;98331.72;;;18.90;100.00
4398;BME280;2213;49.720;7.296;2023-08-17T06:54:56;98327.78;;;18.93;100.00
4398;BME280;2213;49.720;7.296;2023-08-17T06:57:29;98319.16;;;18.97;100.00
4398;BME280;2213;49.720;7.296;2023-08-17T06:59:59;98322.13;;;19.01;100.00
4398;BME280;2213;49.720;7.296;2023-08-17T07:02:29;98323.75;;;19.02;100.00
4398;BME280;2213;49.720;7.296;2023-08-17T07:05:17;98328.94;;;19.08;100.00
4398;BME280;2213;49.720;7.296;2023-08-17T07:07:47;98327.66;;;19.11;100.00
4398;BME280;2213;49.720;7.296;2023-08-17T07:10:17;98328.31;;;19.18;100.00
4398;BME280;2213;49.720;7.296;2023-08-17T07:12:47;98327.84;;;19.21;100.00
4398;BME280;2213;49.720;7.296;2023-08-17T07:15:17;98338.09;;;19.29;100.00
4398;BME280;2213;49.720;7.296;2023-08-17T07:17:47;98334.97;;;19.32;100.00
4398;BME280;2213;49.720;7.296;2023-08-17T07:20:16;98341.41;;;19.36;100.00
4398;BME280;2213;49.720;7.296;2023-08-17T07:22:46;98336.66;;;19.38;100.00
4398;BME280;2213;49.720;7.296;2023-08-17T07:25:15;98348.19;;;19.44;100.00
4398;BME280;2213;49.720;7.296;2023-08-17T07:27:46;98343.56;;;19.51;100.00
4398;BME280;2213;49.720;7.296;2023-08-17T07:30:16;98340.22;;;19.55;100.00
4398;BME280;2213;49.720;7.296;2023-08-17T07:32:46;98346.19;;;19.63;100.00
4398;BME280;2213;49.720;7.296;2023-08-17T07:35:16;98349.31;;;19.59;100.00
4398;BME280;2213;49.720;7.296;2023-08-17T07:37:47;98345.16;;;19.64;100.00
4398;BME280;2213;49.720;7.296;2023-08-17T07:40:30;98330.91;;;19.70;100.00
4398;BME280;2213;49.720;7.296;2023-08-17T07:43:01;98319.34;;;19.76;100.00
4398;BME280;2213;49.720;7.296;2023-08-17T07:45:31;98319.34;;;19.76;100.00
4398;BME280;2213;49.720;7.296;2023-08-17T07:48:02;98318.31;;;19.77;100.00
4398;BME280;2213;49.720;7.296;2023-08-17T07:50:32;98313.56;;;19.79;100.00
4398;BME280;2213;49.720;7.296;2023-08-17T07:53:04;98312.28;;;19.81;100.00
4398;BME280;2213;49.720;7.296;2023-08-17T07:55:34;98313.66;;;19.84;100.00
4398;BME280;2213;49.720;7.296;2023-08-17T07:58:05;98316.53;;;19.82;100.00
4398;BME280;2213;49.720;7.296;2023-08-17T08:00:35;98311.22;;;19.82;100.00
4398;BME280;2213;49.720;7.296;2023-08-17T08:03:06;98319.19;;;19.82;100.00
4398;BME280;2213;49.720;7.296;2023-08-17T08:05:36;98313.56;;;19.79;100.00
4398;BME280;2213;49.720;7.296;2023-08-17T08:08:06;98308.72;;;19.76;100.00
4398;BME280;2213;49.720;7.296;2023-08-17T08:10:37;98320.72;;;19.78;100.00
4398;BME280;2213;49.720;7.296;2023-08-17T08:13:08;98307.31;;;19.85;100.00
4398;BME280;2213;49.720;7.296;2023-08-17T08:15:38;98315.94;;;19.92;100.00
4398;BME280;2213;49.720;7.296;2023-08-17T08:18:08;98317.03;;;19.96;100.00
4398;BME280;2213;49.720;7.296;2023-08-17T08:20:38;98318.75;;;20.02;100.00
4398;BME280;2213;49.720;7.296;2023-08-17T08:23:09;98308.59;;;19.99;100.00
4398;BME280;2213;49.720;7.296;2023-08-17T08:25:40;98305.53;;;20.07;100.00
4398;BME280;2213;49.720;7.296;2023-08-17T08:28:12;98304.28;;;20.09;100.00
4398;BME280;2213;49.720;7.296;2023-08-17T08:30:41;98306.13;;;20.09;100.00
4398;BME280;2213;49.720;7.296;2023-08-17T08:33:12;98313.59;;;20.12;100.00
4398;BME280;2213;49.720;7.296;2023-08-17T08:35:42;98308.84;;;20.14;100.00
4398;BME280;2213;49.720;7.296;2023-08-17T08:38:14;98313.09;;;20.15;100.00
4398;BME280;2213;49.720;7.296;2023-08-17T08:40:47;98299.28;;;20.13;100.00
4398;BME280;2213;49.720;7.296;2023-08-17T08:43:19;98305.69;;;20.17;100.00
4398;BME280;2213;49.720;7.296;2023-08-17T08:45:50;98297.97;;;20.16;100.00
4398;BME280;2213;49.720;7.296;2023-08-17T08:48:22;98299.34;;;20.18;100.00
4398;BME280;2213;49.720;7.296;2023-08-17T08:50:56;98290.88;;;20.21;100.00
4398;BME280;2213;49.720;7.296;2023-08-17T08:53:37;98289.84;;;20.22;100.00
4398;BME280;2213;49.720;7.296;2023-08-17T08:56:12;98292.00;;;20.25;100.00
4398;BME280;2213;49.720;7.296;2023-08-17T08:58:44;98293.19;;;20.29;100.00
4398;BME280;2213;49.720;7.296;2023-08-17T09:01:21;98294.53;;;20.32;100.00
4398;BME280;2213;49.720;7.296;2023-08-17T09:03:53;98294.63;;;20.37;100.00
4398;BME280;2213;49.720;7.296;2023-08-17T09:06:26;98288.81;;;20.40;100.00
4398;BME280;2213;49.720;7.296;2023-08-17T09:08:58;98287.53;;;20.42;100.00
4398;BME280;2213;49.720;7.296;2023-08-17T09:11:31;98279.63;;;20.47;100.00
4398;BME280;2213;49.720;7.296;2023-08-17T09:14:02;98277.53;;;20.49;100.00
4398;BME280;2213;49.720;7.296;2023-08-17T09:16:32;98274.94;;;20.54;100.00
4398;BME280;2213;49.720;7.296;2023-08-17T09:19:01;98271.53;;;20.59;100.00
4398;BME280;2213;49.720;7.296;2023-08-17T09:21:32;98269.69;;;20.59;100.00
4398;BME280;2213;49.720;7.296;2023-08-17T09:24:02;98275.63;;;20.67;100.00
4398;BME280;2213;49.720;7.296;2023-08-17T09:26:32;98276.75;;;20.71;100.00
4398;BME280;2213;49.720;7.296;2023-08-17T09:29:17;98273.59;;;20.74;100.00
4398;BME280;2213;49.720;7.296;2023-08-17T09:31:48;98273.41;;;20.80;100.00
4398;BME280;2213;49.720;7.296;2023-08-17T09:34:19;98279.84;;;20.84;100.00
4398;BME280;2213;49.720;7.296;2023-08-17T09:36:49;98278.03;;;20.90;100.00
4398;BME280;2213;49.720;7.296;2023-08-17T09:39:20;98277.06;;;20.96;100.00
4398;BME280;2213;49.720;7.296;2023-08-17T09:41:49;98276.56;;;20.99;100.00
4398;BME280;2213;49.720;7.296;2023-08-17T09:44:21;98280.09;;;21.04;100.00
4398;BME280;2213;49.720;7.296;2023-08-17T09:46:51;98272.41;;;21.08;100.00
4398;BME280;2213;49.720;7.296;2023-08-17T09:49:24;98273.03;;;21.10;100.00
4398;BME280;2213;49.720;7.296;2023-08-17T09:51:55;98272.25;;;21.15;100.00
4398;BME280;2213;49.720;7.296;2023-08-17T09:54:30;98271.53;;;21.19;100.00
4398;BME280;2213;49.720;7.296;2023-08-17T09:57:00;98280.09;;;21.26;100.00
4398;BME280;2213;49.720;7.296;2023-08-17T09:59:32;98273.78;;;21.32;100.00
4398;BME280;2213;49.720;7.296;2023-08-17T10:02:17;98272.00;;;21.38;100.00
4398;BME280;2213;49.720;7.296;2023-08-17T10:04:52;98268.06;;;21.45;100.00
4398;BME280;2213;49.720;7.296;2023-08-17T10:07:24;98270.81;;;21.55;100.00
4398;BME280;2213;49.720;7.296;2023-08-17T10:10:05;98267.72;;;21.64;100.00
4398;BME280;2213;49.720;7.296;2023-08-17T10:12:40;98275.78;;;21.74;100.00
4398;BME280;2213;49.720;7.296;2023-08-17T10:15:18;98274.28;;;21.83;100.00
4398;BME280;2213;49.720;7.296;2023-08-17T10:17:58;98268.50;;;21.91;100.00
4398;BME280;2213;49.720;7.296;2023-08-17T10:20:30;98272.84;;;21.97;100.00
4398;BME280;2213;49.720;7.296;2023-08-17T10:23:14;98272.09;;;22.06;100.00
4398;BME280;2213;49.720;7.296;2023-08-17T10:25:45;98266.78;;;22.12;100.00
4398;BME280;2213;49.720;7.296;2023-08-17T10:28:18;98276.75;;;22.21;100.00
4398;BME280;2213;49.720;7.296;2023-08-17T10:30:50;98273.06;;;22.27;100.00
4398;BME280;2213;49.720;7.296;2023-08-17T10:33:21;98273.63;;;22.34;100.00
4398;BME280;2213;49.720;7.296;2023-08-17T10:35:52;98261.13;;;22.40;100.00
4398;BME280;2213;49.720;7.296;2023-08-17T10:38:21;98265.19;;;22.47;100.00
4398;BME280;2213;49.720;7.296;2023-08-17T10:41:10;98273.75;;;22.54;100.00
4398;BME280;2213;49.720;7.296;2023-08-17T10:43:54;98266.31;;;22.62;100.00
4398;BME280;2213;49.720;7.296;2023-08-17T10:46:34;98276.47;;;22.65;100.00
4398;BME280;2213;49.720;7.296;2023-08-17T10:49:05;98278.13;;;22.71;100.00
4398;BME280;2213;49.720;7.296;2023-08-17T10:51:36;98273.88;;;22.75;100.00
4398;BME280;2213;49.720;7.296;2023-08-17T10:54:06;98287.78;;;22.77;100.00
4398;BME280;2213;49.720;7.296;2023-08-17T10:56:40;98292.06;;;22.83;100.00
4398;BME280;2213;49.720;7.296;2023-08-17T10:59:26;98294.22;;;22.91;100.00
4398;BME280;2213;49.720;7.296;2023-08-17T11:01:57;98289.97;;;22.95;100.00
4398;BME280;2213;49.720;7.296;2023-08-17T11:04:33;98295.34;;;23.05;100.00
4398;BME280;2213;49.720;7.296;2023-08-17T11:07:04;98288.47;;;23.14;100.00
4398;BME280;2213;49.720;7.296;2023-08-17T11:09:42;98298.13;;;23.25;100.00
4398;BME280;2213;49.720;7.296;2023-08-17T11:12:25;98299.72;;;23.31;100.00
4398;BME280;2213;49.720;7.296;2023-08-17T11:14:58;98298.94;;;23.36;100.00
4398;BME280;2213;49.720;7.296;2023-08-17T11:17:31;98292.28;;;23.43;100.00
4398;BME280;2213;49.720;7.296;2023-08-17T11:20:01;98293.66;;;23.51;100.00
4398;BME280;2213;49.720;7.296;2023-08-17T11:22:30;98291.81;;;23.57;100.00
4398;BME280;2213;49.720;7.296;2023-08-17T11:25:01;98303.81;;;23.64;100.00
4398;BME280;2213;49.720;7.296;2023-08-17T11:27:31;98303.84;;;23.69;100.00
4398;BME280;2213;49.720;7.296;2023-08-17T11:30:07;98303.06;;;23.74;100.00
4398;BME280;2213;49.720;7.296;2023-08-17T11:32:39;98300.38;;;23.79;100.00
4398;BME280;2213;49.720;7.296;2023-08-17T11:35:10;98298.25;;;23.81;100.00
4398;BME280;2213;49.720;7.296;2023-08-17T11:37:44;98295.06;;;23.84;100.00
4398;BME280;2213;49.720;7.296;2023-08-17T11:40:13;98285.94;;;23.85;100.00
4398;BME280;2213;49.720;7.296;2023-08-17T11:42:46;98291.03;;;23.86;100.00
4398;BME280;2213;49.720;7.296;2023-08-17T11:45:18;98278.19;;;23.88;100.00
4398;BME280;2213;49.720;7.296;2023-08-17T11:47:51;98271.78;;;23.89;100.00
4398;BME280;2213;49.720;7.296;2023-08-17T11:50:20;98263.78;;;23.89;100.00
4398;BME280;2213;49.720;7.296;2023-08-17T11:52:52;98260.84;;;23.86;100.00
4398;BME280;2213;49.720;7.296;2023-08-17T11:55:22;98249.09;;;23.87;100.00
4398;BME280;2213;49.720;7.296;2023-08-17T11:57:53;98253.13;;;23.84;100.00
4398;BME280;2213;49.720;7.296;2023-08-17T12:00:23;98249.09;;;23.82;100.00
4398;BME280;2213;49.720;7.296;2023-08-17T12:02:56;98244.03;;;23.80;100.00
4398;BME280;2213;49.720;7.296;2023-08-17T12:05:26;98241.88;;;23.77;100.00
4398;BME280;2213;49.720;7.296;2023-08-17T12:07:59;98246.16;;;23.78;100.00
4398;BME280;2213;49.720;7.296;2023-08-17T12:10:29;98237.06;;;23.79;100.00
4398;BME280;2213;49.720;7.296;2023-08-17T12:12:59;98231.47;;;23.76;100.00
4398;BME280;2213;49.720;7.296;2023-08-17T12:15:31;98241.88;;;23.72;100.00
4398;BME280;2213;49.720;7.296;2023-08-17T12:18:04;98253.38;;;23.73;100.00
4398;BME280;2213;49.720;7.296;2023-08-17T12:20:34;98267.25;;;23.75;100.00
4398;BME280;2213;49.720;7.296;2023-08-17T12:23:05;98275.53;;;23.78;100.00
4398;BME280;2213;49.720;7.296;2023-08-17T12:25:35;98278.50;;;23.87;100.00
4398;BME280;2213;49.720;7.296;2023-08-17T12:28:08;98271.53;;;23.91;100.00
4398;BME280;2213;49.720;7.296;2023-08-17T12:30:37;98279.53;;;23.96;100.00
4398;BME280;2213;49.720;7.296;2023-08-17T12:33:08;98269.38;;;24.03;100.00
4398;BME280;2213;49.720;7.296;2023-08-17T12:35:42;98274.19;;;24.06;100.00
4398;BME280;2213;49.720;7.296;2023-08-17T12:38:12;98271.03;;;24.14;100.00
4398;BME280;2213;49.720;7.296;2023-08-17T12:40:41;98275.81;;;24.17;100.00
4398;BME280;2213;49.720;7.296;2023-08-17T12:43:11;98272.06;;;24.23;100.00
4398;BME280;2213;49.720;7.296;2023-08-17T12:45:42;98279.81;;;24.30;100.00
4398;BME280;2213;49.720;7.296;2023-08-17T12:48:14;98274.47;;;24.35;100.00
4398;BME280;2213;49.720;7.296;2023-08-17T12:50:44;98265.38;;;24.41;100.00
4398;BME280;2213;49.720;7.296;2023-08-17T12:53:14;98257.34;;;24.46;100.00
4398;BME280;2213;49.720;7.296;2023-08-17T12:55:44;98254.63;;;24.51;100.00
4398;BME280;2213;49.720;7.296;2023-08-17T12:58:14;98243.13;;;24.55;100.00
4398;BME280;2213;49.720;7.296;2023-08-17T13:00:44;98236.97;;;24.60;100.00
4398;BME280;2213;49.720;7.296;2023-08-17T13:03:15;98239.09;;;24.63;100.00
4398;BME280;2213;49.720;7.296;2023-08-17T13:05:44;98236.41;;;24.68;100.00
4398;BME280;2213;49.720;7.296;2023-08-17T13:08:14;98219.53;;;24.73;100.00
4398;BME280;2213;49.720;7.296;2023-08-17T13:10:43;98222.22;;;24.78;100.00
4398;BME280;2213;49.720;7.296;2023-08-17T13:13:13;98224.88;;;24.83;100.00
4398;BME280;2213;49.720;7.296;2023-08-17T13:15:43;98209.63;;;24.88;100.00
4398;BME280;2213;49.720;7.296;2023-08-17T13:18:15;98206.94;;;24.88;100.00
4398;BME280;2213;49.720;7.296;2023-08-17T13:20:46;98198.59;;;24.95;100.00
4398;BME280;2213;49.720;7.296;2023-08-17T13:23:16;98197.50;;;25.01;100.00
4398;BME280;2213;49.720;7.296;2023-08-17T13:25:49;98195.06;;;25.04;100.00
4398;BME280;2213;49.720;7.296;2023-08-17T13:28:19;98189.97;;;25.08;100.00
4398;BME280;2213;49.720;7.296;2023-08-17T13:30:48;98180.31;;;25.12;100.00
4398;BME280;2213;49.720;7.296;2023-08-17T13:33:19;98177.03;;;25.20;100.00